Time;durP1;ratioP1;P1;durP2;ratioP2;P2;SDS_P1;SDS_P2;PMS_P1;PMS_P2;Temp;Humidity;BMP_temperature;BMP_pressure;BME280_temperature;BME280_humidity;BME280_pressure;Samples;Min_cycle;Max_cycle;Signal;HPM_P1;HPM_P2
2021/07/11 00:02:18;;;;;;;8.60;4.35;;;17.80;91.70;;;;;;5035427;28;20030;-77
2021/07/11 00:04:44;;;;;;;6.78;3.90;;;17.80;91.80;;;;;;5035260;28;20030;-78
2021/07/11 00:07:14;;;;;;;7.60;3.70;;;17.70;92.00;;;;;;5035510;28;20032;-77
2021/07/11 00:09:40;;;;;;;6.03;3.90;;;17.70;92.00;;;;;;5035415;28;20426;-79
2021/07/11 00:12:06;;;;;;;6.93;4.20;;;17.60;92.50;;;;;;5035397;28;20035;-79
2021/07/11 00:14:32;;;;;;;7.13;3.85;;;17.60;92.60;;;;;;5034922;28;20013;-78
2021/07/11 00:16:58;;;;;;;6.78;3.65;;;17.60;92.70;;;;;;5035353;28;20022;-77
2021/07/11 00:19:24;;;;;;;6.68;3.60;;;17.50;92.80;;;;;;5036425;28;20036;-78
2021/07/11 00:21:49;;;;;;;6.05;3.92;;;17.60;92.80;;;;;;5055176;28;20025;-79
2021/07/11 00:24:15;;;;;;;6.70;4.32;;;17.60;92.90;;;;;;5054948;28;20362;-76
2021/07/11 00:26:41;;;;;;;6.60;3.95;;;17.60;92.90;;;;;;5054844;28;20090;-80
2021/07/11 00:29:06;;;;;;;8.82;3.97;;;17.50;93.10;;;;;;5055141;28;20123;-77
2021/07/11 00:31:32;;;;;;;6.32;3.70;;;17.50;93.10;;;;;;5054939;28;20158;-77
2021/07/11 00:33:58;;;;;;;6.20;3.70;;;17.50;93.20;;;;;;5054997;28;20021;-77
2021/07/11 00:36:24;;;;;;;6.95;3.80;;;17.50;93.00;;;;;;5055015;28;20404;-77
2021/07/11 00:38:50;;;;;;;7.55;3.88;;;17.50;93.10;;;;;;5054625;28;20439;-76
2021/07/11 00:41:15;;;;;;;5.80;3.78;;;17.50;93.10;;;;;;5054944;28;20024;-79
2021/07/11 00:43:41;;;;;;;7.53;3.83;;;17.60;93.10;;;;;;5054859;28;20029;-77
2021/07/11 00:46:07;;;;;;;6.22;3.58;;;17.60;93.10;;;;;;5054678;28;20120;-78
2021/07/11 00:48:32;;;;;;;7.35;3.70;;;17.60;93.40;;;;;;5054681;28;20052;-77
2021/07/11 00:50:58;;;;;;;7.03;4.28;;;17.60;93.10;;;;;;5054310;28;20535;-78
2021/07/11 00:53:24;;;;;;;7.82;4.07;;;17.60;92.80;;;;;;5054534;28;20021;-77
2021/07/11 00:55:51;;;;;;;9.30;4.43;;;17.70;92.60;;;;;;5054568;28;20025;-77
2021/07/11 00:58:16;;;;;;;7.18;4.10;;;17.60;92.60;;;;;;5054448;28;20024;-76
2021/07/11 01:00:54;;;;;;;6.40;4.20;;;17.60;92.90;;;;;;5054403;28;20029;-79
2021/07/11 01:03:49;;;;;;;5.43;3.65;;;17.50;93.10;;;;;;5054116;28;20540;-79
2021/07/11 01:06:17;;;;;;;7.13;3.58;;;17.50;93.10;;;;;;5052078;28;20037;-77
2021/07/11 01:09:00;;;;;;;6.40;4.18;;;17.40;93.20;;;;;;5054259;28;20021;-76
2021/07/11 01:11:31;;;;;;;7.10;4.32;;;17.40;93.20;;;;;;5054304;28;20036;-75
2021/07/11 01:13:58;;;;;;;5.88;4.22;;;17.40;93.20;;;;;;5054054;28;20070;-75
2021/07/11 01:16:33;;;;;;;7.88;4.70;;;17.40;93.30;;;;;;5053911;28;20047;-79
2021/07/11 01:19:10;;;;;;;9.88;4.72;;;17.50;92.70;;;;;;5054070;28;20063;-77
2021/07/11 01:21:44;;;;;;;6.28;4.22;;;17.40;92.90;;;;;;5034294;28;20040;-76
2021/07/11 01:24:31;;;;;;;10.63;4.25;;;17.40;93.20;;;;;;5034072;28;20390;-77
2021/07/11 01:26:57;;;;;;;7.55;4.93;;;17.50;93.10;;;;;;5033412;28;20037;-80
2021/07/11 01:29:25;;;;;;;7.93;4.82;;;17.50;92.90;;;;;;5033852;28;20026;-77
2021/07/11 01:31:51;;;;;;;7.57;4.80;;;17.50;92.90;;;;;;5033938;28;20026;-77
2021/07/11 01:34:18;;;;;;;6.43;4.50;;;17.50;93.10;;;;;;5033979;28;20057;-78
2021/07/11 01:36:44;;;;;;;8.05;4.75;;;17.40;93.00;;;;;;5033831;28;20032;-78
2021/07/11 01:39:10;;;;;;;9.13;4.85;;;17.40;93.10;;;;;;5033448;28;20021;-76
2021/07/11 01:41:38;;;;;;;9.10;5.00;;;17.50;92.80;;;;;;5033778;28;20032;-79
2021/07/11 01:44:06;;;;;;;8.27;4.47;;;17.50;92.90;;;;;;5033723;28;20104;-79
2021/07/11 01:46:32;;;;;;;7.97;5.05;;;17.50;92.90;;;;;;5033813;28;20029;-77
2021/07/11 01:49:00;;;;;;;6.45;4.47;;;17.50;93.00;;;;;;5033731;28;20417;-77
2021/07/11 01:51:26;;;;;;;9.40;5.13;;;17.50;93.20;;;;;;5033228;28;20057;-76
2021/07/11 01:53:53;;;;;;;8.82;5.25;;;17.50;93.10;;;;;;5033518;28;20021;-76
2021/07/11 01:56:19;;;;;;;7.95;5.43;;;17.50;93.10;;;;;;5033541;28;20041;-77
2021/07/11 01:58:45;;;;;;;9.27;4.90;;;17.50;93.10;;;;;;5033551;28;20021;-76
2021/07/11 02:01:14;;;;;;;9.18;5.32;;;17.50;93.10;;;;;;5033417;28;20547;-76
2021/07/11 02:03:41;;;;;;;10.93;6.32;;;17.50;93.10;;;;;;5033271;28;20040;-76
2021/07/11 02:06:08;;;;;;;6.82;4.97;;;17.60;93.20;;;;;;5015694;28;20394;-77
2021/07/11 02:08:37;;;;;;;8.65;4.95;;;17.50;93.40;;;;;;5033336;28;20368;-79
2021/07/11 02:11:03;;;;;;;11.93;5.95;;;17.60;93.40;;;;;;5033286;28;20102;-76
2021/07/11 02:13:40;;;;;;;9.35;5.30;;;17.60;93.40;;;;;;5033246;28;20017;-78
2021/07/11 02:16:20;;;;;;;10.90;5.80;;;17.60;93.50;;;;;;5033167;28;20024;-79
2021/07/11 02:18:47;;;;;;;10.80;5.25;;;17.50;93.70;;;;;;5015567;28;20030;-77
2021/07/11 02:21:13;;;;;;;9.98;6.13;;;17.50;93.90;;;;;;5049054;28;20476;-77
2021/07/11 02:23:40;;;;;;;10.52;5.90;;;17.50;93.50;;;;;;5053121;28;20028;-79
2021/07/11 02:26:06;;;;;;;9.48;5.85;;;17.60;93.10;;;;;;5052665;28;20425;-77
2021/07/11 02:28:34;;;;;;;9.00;5.47;;;17.50;92.90;;;;;;5052854;28;20025;-76
2021/07/11 02:31:02;;;;;;;10.05;6.45;;;17.50;92.80;;;;;;5052941;28;20389;-79
2021/07/11 02:33:32;;;;;;;7.93;5.32;;;17.50;92.90;;;;;;5053050;28;20071;-80
2021/07/11 02:36:01;;;;;;;9.48;5.78;;;17.50;93.10;;;;;;5053027;28;20086;-78
2021/07/11 02:38:35;;;;;;;10.15;5.60;;;17.50;93.00;;;;;;5055437;28;20043;-78
2021/07/11 02:41:01;;;;;;;8.68;5.90;;;17.50;93.10;;;;;;5057141;28;20111;-76
2021/07/11 02:43:27;;;;;;;8.75;5.40;;;17.50;93.20;;;;;;5057139;28;20473;-77
2021/07/11 02:45:54;;;;;;;11.13;5.82;;;17.40;93.10;;;;;;5056733;28;20112;-77
2021/07/11 02:48:20;;;;;;;7.97;5.65;;;17.40;93.60;;;;;;5056946;28;20037;-76
2021/07/11 02:50:48;;;;;;;9.85;5.80;;;17.40;93.60;;;;;;5056568;28;20048;-78
2021/07/11 02:53:20;;;;;;;8.65;5.25;;;17.40;93.70;;;;;;5038909;28;20436;-79
2021/07/11 02:55:47;;;;;;;10.50;5.47;;;17.40;93.70;;;;;;5056907;28;20024;-76
2021/07/11 02:58:17;;;;;;;9.30;5.55;;;17.50;93.80;;;;;;5056786;28;20021;-78
2021/07/11 03:00:44;;;;;;;9.85;5.75;;;17.50;93.80;;;;;;5056755;28;20534;-78
2021/07/11 03:03:14;;;;;;;12.45;7.60;;;17.40;93.90;;;;;;5056369;28;20086;-79
2021/07/11 03:05:40;;;;;;;11.10;5.95;;;17.20;94.10;;;;;;5056687;28;20032;-77
2021/07/11 03:08:07;;;;;;;16.55;6.80;;;17.10;94.70;;;;;;5056532;28;20025;-78
2021/07/11 03:10:33;;;;;;;15.20;7.45;;;17.20;94.70;;;;;;5056437;28;20025;-76
2021/07/11 03:13:01;;;;;;;10.73;6.18;;;17.10;94.70;;;;;;5056448;28;20041;-76
2021/07/11 03:15:27;;;;;;;11.48;6.32;;;17.00;95.10;;;;;;5056468;28;20477;-77
2021/07/11 03:17:58;;;;;;;12.55;6.43;;;17.10;94.50;;;;;;5056383;28;20108;-79
2021/07/11 03:20:25;;;;;;;9.93;6.10;;;17.00;94.70;;;;;;5028943;28;20026;-77
2021/07/11 03:22:53;;;;;;;10.02;6.00;;;16.90;95.00;;;;;;5036325;28;20074;-78
2021/07/11 03:25:20;;;;;;;10.20;6.05;;;17.00;94.80;;;;;;5036162;28;20124;-78
2021/07/11 03:27:47;;;;;;;10.50;5.63;;;17.10;94.70;;;;;;5036132;28;20029;-75
2021/07/11 03:30:18;;;;;;;11.20;6.00;;;17.30;94.10;;;;;;5036117;28;20029;-77
2021/07/11 03:32:45;;;;;;;;;;;17.30;94.00;;;;;;5018921;28;20037;-78
2021/07/11 03:35:13;;;;;;;7.72;5.25;;;17.30;94.00;;;;;;5036160;28;20377;-76
2021/07/11 03:37:42;;;;;;;9.45;5.95;;;17.30;93.80;;;;;;5036175;28;20028;-79
2021/07/11 03:40:10;;;;;;;11.05;6.60;;;17.30;93.50;;;;;;5035897;28;20028;-76
2021/07/11 03:42:40;;;;;;;10.52;6.10;;;17.20;93.60;;;;;;5036008;28;20022;-77
2021/07/11 03:45:08;;;;;;;11.23;5.68;;;16.90;94.20;;;;;;5036006;28;20568;-76
2021/07/11 03:47:42;;;;;;;11.15;6.30;;;16.90;94.30;;;;;;5035906;28;20120;-77
2021/07/11 03:50:09;;;;;;;11.40;5.97;;;16.80;94.80;;;;;;5035642;28;20036;-78
2021/07/11 03:53:01;;;;;;;11.02;6.70;;;16.70;95.00;;;;;;5035566;28;20092;-77
2021/07/11 03:55:30;;;;;;;11.45;6.45;;;16.60;95.20;;;;;;5035845;28;20029;-78
2021/07/11 03:57:58;;;;;;;11.20;6.47;;;16.40;95.40;;;;;;5035792;28;20109;-77
2021/07/11 04:00:24;;;;;;;15.32;7.13;;;16.40;95.50;;;;;;5035624;28;20040;-77
2021/07/11 04:02:52;;;;;;;12.25;6.88;;;16.40;95.60;;;;;;5035390;28;20025;-78
2021/07/11 04:05:22;;;;;;;12.07;7.07;;;16.20;95.80;;;;;;5035550;28;20104;-76
2021/07/11 04:07:52;;;;;;;11.93;7.78;;;16.20;96.00;;;;;;5035518;28;20049;-77
2021/07/11 04:10:25;;;;;;;13.75;8.02;;;16.10;96.20;;;;;;5035416;28;20034;-76
2021/07/11 04:12:56;;;;;;;14.75;8.00;;;16.10;96.00;;;;;;5035472;28;20028;-75
2021/07/11 04:15:22;;;;;;;12.68;6.38;;;16.20;95.80;;;;;;5017299;28;20505;-78
2021/07/11 04:17:50;;;;;;;9.80;6.05;;;16.30;95.80;;;;;;5035315;28;20049;-76
2021/07/11 04:20:17;;;;;;;12.48;7.30;;;16.30;95.70;;;;;;5043486;28;20055;-78
2021/07/11 04:22:44;;;;;;;11.15;7.55;;;16.20;95.70;;;;;;5055169;28;20485;-78
2021/07/11 04:25:12;;;;;;;12.45;7.22;;;16.20;95.60;;;;;;5054914;28;20053;-76
2021/07/11 04:27:39;;;;;;;11.93;6.57;;;16.20;95.70;;;;;;5054803;28;20017;-74
2021/07/11 04:30:07;;;;;;;12.95;7.20;;;16.20;95.70;;;;;;5054997;28;20032;-78
2021/07/11 04:32:34;;;;;;;11.48;8.20;;;16.30;95.80;;;;;;5054937;28;20052;-77
2021/07/11 04:35:00;;;;;;;12.98;7.63;;;16.30;95.50;;;;;;5054940;28;20017;-76
2021/07/11 04:37:25;;;;;;;12.43;7.35;;;16.20;95.80;;;;;;5054867;28;20051;-76
2021/07/11 04:39:51;;;;;;;15.50;8.38;;;16.10;96.00;;;;;;5054575;28;20033;-79
2021/07/11 04:42:17;;;;;;;12.10;7.40;;;16.10;96.20;;;;;;5054912;28;20028;-79
2021/07/11 04:44:44;;;;;;;14.15;8.27;;;16.00;96.30;;;;;;5054822;28;20025;-78
2021/07/11 04:47:11;;;;;;;13.23;7.70;;;15.90;96.70;;;;;;5054787;28;20018;-78
2021/07/11 04:49:37;;;;;;;13.40;7.63;;;16.00;96.40;;;;;;5054547;28;20025;-78
2021/07/11 04:52:04;;;;;;;13.05;7.55;;;16.00;96.20;;;;;;5054417;28;20378;-77
2021/07/11 04:54:31;;;;;;;10.52;7.20;;;16.00;96.10;;;;;;5054462;28;20036;-78
2021/07/11 04:56:57;;;;;;;12.52;6.88;;;16.00;96.20;;;;;;5054666;28;20040;-77
2021/07/11 04:59:23;;;;;;;11.20;6.13;;;16.20;95.90;;;;;;5054099;28;20481;-76
2021/07/11 05:01:48;;;;;;;11.77;7.53;;;16.40;95.60;;;;;;5053831;28;20031;-76
2021/07/11 05:04:14;;;;;;;14.18;7.15;;;16.40;95.00;;;;;;5054143;28;20074;-77
2021/07/11 05:06:40;;;;;;;13.73;7.00;;;16.30;95.00;;;;;;5054348;28;20013;-78
2021/07/11 05:09:06;;;;;;;12.10;7.78;;;16.10;95.50;;;;;;5054606;28;20530;-77
2021/07/11 05:11:32;;;;;;;12.13;7.30;;;16.20;95.30;;;;;;5054147;28;20025;-75
2021/07/11 05:13:58;;;;;;;9.13;6.13;;;16.30;95.30;;;;;;5054135;28;20025;-74
2021/07/11 05:16:24;;;;;;;10.00;7.15;;;16.40;95.10;;;;;;5053879;28;20385;-77
2021/07/11 05:18:49;;;;;;;10.70;6.60;;;16.40;95.00;;;;;;5054127;28;20155;-77
2021/07/11 05:21:15;;;;;;;10.90;6.30;;;16.40;95.10;;;;;;5037281;28;20436;-76
2021/07/11 05:23:44;;;;;;;10.10;6.68;;;16.40;94.80;;;;;;5034090;28;20485;-78
2021/07/11 05:26:09;;;;;;;11.13;6.35;;;16.50;94.60;;;;;;5034147;28;20492;-77
2021/07/11 05:28:35;;;;;;;10.70;6.72;;;16.60;94.40;;;;;;5033768;28;20068;-76
2021/07/11 05:31:00;;;;;;;11.35;5.90;;;16.60;94.50;;;;;;5033943;28;20119;-77
2021/07/11 05:33:26;;;;;;;8.93;6.03;;;16.50;94.40;;;;;;5033927;28;20021;-76
2021/07/11 05:35:52;;;;;;;11.32;6.55;;;16.70;94.40;;;;;;5033835;28;20021;-78
2021/07/11 05:38:17;;;;;;;15.57;7.18;;;16.60;94.50;;;;;;5033748;28;20031;-75
2021/07/11 05:40:43;;;;;;;12.75;6.97;;;16.80;94.50;;;;;;5033704;28;20025;-78
2021/07/11 05:43:09;;;;;;;14.70;6.68;;;16.80;94.30;;;;;;5033818;28;20026;-78
2021/07/11 05:45:35;;;;;;;11.43;7.07;;;16.90;94.30;;;;;;5033729;28;20104;-76
2021/07/11 05:48:00;;;;;;;12.45;7.80;;;16.80;94.60;;;;;;5033823;28;20079;-78
2021/07/11 05:50:26;;;;;;;11.02;6.72;;;16.70;95.10;;;;;;5033494;28;20026;-77
2021/07/11 05:52:52;;;;;;;13.43;7.70;;;16.60;95.30;;;;;;5033576;28;20067;-77
2021/07/11 05:55:18;;;;;;;13.35;7.57;;;16.70;95.20;;;;;;5033464;28;20017;-77
2021/07/11 05:57:43;;;;;;;11.40;7.22;;;16.80;95.20;;;;;;5033575;28;20021;-77
2021/07/11 06:00:11;;;;;;;14.20;7.15;;;16.70;95.50;;;;;;5033469;28;20025;-79
2021/07/11 06:02:37;;;;;;;13.23;7.70;;;16.80;95.50;;;;;;5033362;28;20021;-76
2021/07/11 06:05:04;;;;;;;12.20;7.38;;;16.80;95.20;;;;;;5033348;28;20025;-79
2021/07/11 06:07:30;;;;;;;11.65;6.43;;;16.70;95.40;;;;;;5033497;28;20104;-79
2021/07/11 06:09:57;;;;;;;10.77;6.38;;;16.80;95.40;;;;;;5033291;28;20104;-79
2021/07/11 06:12:24;;;;;;;12.50;6.50;;;17.00;95.20;;;;;;5033099;28;20029;-75
2021/07/11 06:14:49;;;;;;;13.75;6.95;;;17.10;95.10;;;;;;5033150;28;20025;-77
2021/07/11 06:17:15;;;;;;;10.93;6.57;;;17.00;95.00;;;;;;5015807;28;20382;-76
2021/07/11 06:19:41;;;;;;;12.85;7.13;;;17.00;95.10;;;;;;5036582;28;20104;-75
2021/07/11 06:22:07;;;;;;;13.13;6.63;;;17.10;95.00;;;;;;5053145;28;20021;-76
2021/07/11 06:24:33;;;;;;;10.43;6.65;;;17.20;94.90;;;;;;5052924;28;20055;-79
2021/07/11 06:26:58;;;;;;;9.38;6.47;;;17.50;94.60;;;;;;5053111;28;20079;-78
2021/07/11 06:29:24;;;;;;;10.07;5.60;;;17.70;94.50;;;;;;5052977;28;20025;-77
2021/07/11 06:31:50;;;;;;;12.32;6.60;;;17.90;93.80;;;;;;5053037;28;20071;-78
2021/07/11 06:34:15;;;;;;;10.63;6.47;;;18.00;93.60;;;;;;5053121;28;20111;-77
2021/07/11 06:36:41;;;;;;;14.32;6.70;;;18.00;93.20;;;;;;5053053;28;20067;-78
2021/07/11 06:39:07;;;;;;;11.98;6.60;;;17.80;93.50;;;;;;5052701;28;20033;-77
2021/07/11 06:41:33;;;;;;;11.70;6.57;;;17.80;94.00;;;;;;5052957;28;20018;-79
2021/07/11 06:43:59;;;;;;;10.73;6.55;;;17.90;93.70;;;;;;5052954;28;20458;-77
2021/07/11 06:46:24;;;;;;;9.02;6.15;;;18.10;93.20;;;;;;5052939;28;20131;-76
2021/07/11 06:48:50;;;;;;;10.88;6.00;;;18.20;92.40;;;;;;5053009;28;20025;-79
2021/07/11 06:51:16;;;;;;;10.25;6.25;;;18.20;92.60;;;;;;5052617;28;20060;-76
2021/07/11 06:53:42;;;;;;;10.82;5.57;;;18.00;93.00;;;;;;5052896;28;20036;-77
2021/07/11 06:56:08;;;;;;;8.45;5.47;;;17.90;93.20;;;;;;5052985;28;20013;-76
2021/07/11 06:58:33;;;;;;;7.97;5.43;;;18.20;92.60;;;;;;5052796;28;20396;-75
2021/07/11 07:00:59;;;;;;;9.38;4.82;;;18.30;92.10;;;;;;5052747;28;20108;-77
2021/07/11 07:03:25;;;;;;;9.02;4.15;;;18.40;92.10;;;;;;5052520;28;20029;-78
2021/07/11 07:05:52;;;;;;;8.88;3.97;;;19.00;91.10;;;;;;5052736;28;20067;-78
2021/07/11 07:08:18;;;;;;;9.02;3.95;;;19.30;90.00;;;;;;5052702;28;20029;-80
2021/07/11 07:10:43;;;;;;;5.63;3.30;;;19.50;88.60;;;;;;5052688;28;20070;-78
2021/07/11 07:13:09;;;;;;;8.40;3.85;;;19.60;88.00;;;;;;5052721;28;20021;-78
2021/07/11 07:15:35;;;;;;;5.88;3.85;;;19.60;89.00;;;;;;5052409;28;20017;-77
2021/07/11 07:18:01;;;;;;;5.43;3.65;;;19.60;89.10;;;;;;5052648;28;20541;-79
2021/07/11 07:20:27;;;;;;;6.40;3.28;;;19.50;86.50;;;;;;5042666;28;20509;-79
2021/07/11 07:22:53;;;;;;;5.63;3.20;;;19.30;87.90;;;;;;5014985;28;20026;-78
2021/07/11 07:25:19;;;;;;;5.70;3.75;;;19.60;88.50;;;;;;5036197;28;20045;-78
2021/07/11 07:27:46;;;;;;;5.65;3.80;;;19.80;87.50;;;;;;5036047;28;20029;-79
2021/07/11 07:30:15;;;;;;;7.53;3.70;;;19.70;86.60;;;;;;5036169;28;20053;-77
2021/07/11 07:32:42;;;;;;;7.22;4.00;;;19.40;88.80;;;;;;5036351;28;20496;-76
2021/07/11 07:35:08;;;;;;;7.00;4.05;;;19.20;89.90;;;;;;5036139;28;20045;-79
2021/07/11 07:37:35;;;;;;;7.15;3.40;;;19.10;89.60;;;;;;5036024;28;20432;-76
2021/07/11 07:40:04;;;;;;;5.13;3.15;;;18.90;90.60;;;;;;5035795;28;20100;-77
2021/07/11 07:42:29;;;;;;;6.13;3.60;;;19.10;90.50;;;;;;5036016;28;20018;-76
2021/07/11 07:44:55;;;;;;;6.30;3.53;;;19.30;89.40;;;;;;5036016;28;20025;-75
2021/07/11 07:47:21;;;;;;;6.78;3.50;;;19.30;89.10;;;;;;5035908;28;20481;-78
2021/07/11 07:49:47;;;;;;;5.72;3.42;;;19.20;89.50;;;;;;5035832;28;20041;-76
2021/07/11 07:52:12;;;;;;;8.18;3.60;;;19.10;89.30;;;;;;5035591;28;20509;-78
2021/07/11 07:54:38;;;;;;;5.40;3.85;;;19.20;90.20;;;;;;5035723;28;20378;-76
2021/07/11 07:57:04;;;;;;;6.55;3.55;;;19.30;88.90;;;;;;5035730;28;20080;-78
2021/07/11 07:59:29;;;;;;;5.75;3.72;;;19.50;87.90;;;;;;5035714;28;20037;-79
2021/07/11 08:01:55;;;;;;;7.35;3.75;;;19.30;87.40;;;;;;5035561;28;20021;-79
2021/07/11 08:04:21;;;;;;;5.65;3.38;;;19.20;89.40;;;;;;5035346;28;20036;-79
2021/07/11 08:06:49;;;;;;;4.60;3.10;;;19.10;89.00;;;;;;5035635;28;20031;-77
2021/07/11 08:09:16;;;;;;;4.78;3.38;;;19.10;90.50;;;;;;5035504;28;20105;-77
2021/07/11 08:11:43;;;;;;;4.72;3.17;;;19.20;89.50;;;;;;5035385;28;20023;-79
2021/07/11 08:14:09;;;;;;;5.22;3.63;;;19.30;89.40;;;;;;5035273;28;20494;-75
2021/07/11 08:16:35;;;;;;;6.38;3.78;;;19.30;88.80;;;;;;5035047;28;20021;-76
2021/07/11 08:19:00;;;;;;;6.40;3.53;;;19.40;89.20;;;;;;5035335;28;20021;-79
2021/07/11 08:21:26;;;;;;;5.28;3.70;;;19.40;89.40;;;;;;5052974;28;20045;-75
2021/07/11 08:23:52;;;;;;;7.65;3.58;;;19.60;87.20;;;;;;5055175;28;20017;-79
2021/07/11 08:26:18;;;;;;;4.70;3.33;;;19.80;87.20;;;;;;5054707;28;20067;-78
2021/07/11 08:28:43;;;;;;;5.93;2.70;;;20.50;83.40;;;;;;5055101;28;20029;-77
2021/07/11 08:31:09;;;;;;;5.63;3.28;;;20.90;82.30;;;;;;5055011;28;20451;-79
2021/07/11 08:33:35;;;;;;;6.30;3.20;;;21.10;81.00;;;;;;5055021;28;20040;-77
2021/07/11 08:36:01;;;;;;;5.30;3.28;;;20.70;80.00;;;;;;5054894;28;20052;-78
2021/07/11 08:38:27;;;;;;;4.65;3.00;;;20.50;82.60;;;;;;5054850;28;20056;-78
2021/07/11 08:40:53;;;;;;;4.82;3.20;;;20.70;82.80;;;;;;5054902;28;20117;-76
2021/07/11 08:43:19;;;;;;;5.82;3.20;;;20.70;81.90;;;;;;5054875;28;20025;-77
2021/07/11 08:45:44;;;;;;;4.95;2.97;;;20.50;82.80;;;;;;5054741;28;20472;-75
2021/07/11 08:48:10;;;;;;;3.88;2.80;;;20.80;80.70;;;;;;5054715;28;20051;-77
2021/07/11 08:50:36;;;;;;;5.78;2.80;;;21.20;79.70;;;;;;5054559;28;20037;-77
2021/07/11 08:53:02;;;;;;;6.50;3.35;;;20.90;79.00;;;;;;5036687;28;20602;-78
2021/07/11 08:55:28;;;;;;;4.95;2.85;;;20.90;79.60;;;;;;5054650;28;20025;-77
2021/07/11 08:58:01;;;;;;;6.25;3.15;;;20.70;81.00;;;;;;5054596;28;20431;-78
2021/07/11 09:00:32;;;;;;;4.78;3.42;;;20.60;83.30;;;;;;5054640;28;20477;-77
2021/07/11 09:02:59;;;;;;;5.45;3.00;;;20.60;82.90;;;;;;5054367;28;20052;-79
2021/07/11 09:05:24;;;;;;;4.30;3.03;;;20.80;82.20;;;;;;5054372;28;20074;-77
2021/07/11 09:08:23;;;;;;;4.38;3.00;;;21.90;80.80;;;;;;5054384;28;20033;-77
2021/07/11 09:10:57;;;;;;;5.47;2.95;;;23.90;67.60;;;;;;5054427;28;20017;-79
2021/07/11 09:13:30;;;;;;;2.92;2.35;;;23.40;67.70;;;;;;5054165;28;20025;-79
2021/07/11 09:15:57;;;;;;;4.65;3.00;;;22.90;69.20;;;;;;5054041;28;20071;-76
2021/07/11 09:18:33;;;;;;;4.15;2.60;;;22.50;71.60;;;;;;5054185;28;20053;-78
2021/07/11 09:21:01;;;;;;;4.03;2.78;;;22.40;73.50;;;;;;5039762;28;20026;-79
2021/07/11 09:23:29;;;;;;;5.88;3.03;;;22.20;73.80;;;;;;5034143;28;20022;-77
2021/07/11 09:26:02;;;;;;;6.00;3.10;;;21.90;74.80;;;;;;5042922;28;20459;-77
2021/07/11 09:28:29;;;;;;;5.38;2.65;;;21.60;75.70;;;;;;5053728;28;20075;-75
2021/07/11 09:31:08;;;;;;;3.78;2.60;;;21.40;76.70;;;;;;5053857;28;20074;-76
2021/07/11 09:33:37;;;;;;;;;;;21.20;78.50;;;;;;5054276;28;20049;-78
2021/07/11 09:36:19;;;;;;;5.00;2.97;;;21.20;78.80;;;;;;5054068;28;19904;-79
2021/07/11 09:38:49;;;;;;;4.82;2.78;;;21.50;78.10;;;;;;5053586;28;20432;-80
2021/07/11 09:41:24;;;;;;;5.35;2.70;;;22.00;77.10;;;;;;5053756;28;20079;-78
2021/07/11 09:43:55;;;;;;;3.95;2.40;;;22.90;74.80;;;;;;5053839;28;20021;-79
2021/07/11 09:46:23;;;;;;;4.93;3.10;;;24.30;63.00;;;;;;5053406;28;20037;-76
2021/07/11 09:48:50;;;;;;;4.25;2.60;;;24.10;62.80;;;;;;5053652;28;20099;-77
2021/07/11 09:51:22;;;;;;;4.63;2.60;;;23.40;67.10;;;;;;5053306;28;20442;-77
2021/07/11 09:53:49;;;;;;;5.18;2.45;;;23.30;70.10;;;;;;5053488;28;20021;-78
2021/07/11 09:56:35;;;;;;;3.65;2.53;;;23.30;67.90;;;;;;5053525;28;20473;-75
2021/07/11 09:59:03;;;;;;;9.90;2.92;;;23.70;67.90;;;;;;5053529;28;20021;-78
2021/07/11 10:01:30;;;;;;;3.28;2.63;;;23.80;65.90;;;;;;5053396;28;20503;-78
2021/07/11 10:03:57;;;;;;;5.20;2.97;;;23.40;66.20;;;;;;5053125;28;20017;-79
2021/07/11 10:06:24;;;;;;;4.70;3.10;;;23.30;67.10;;;;;;5053311;28;20100;-80
2021/07/11 10:08:49;;;;;;;3.55;2.80;;;23.20;67.80;;;;;;5053413;28;20017;-77
2021/07/11 10:11:15;;;;;;;3.08;2.65;;;23.30;67.00;;;;;;5053273;28;20473;-75
2021/07/11 10:13:41;;;;;;;4.45;2.90;;;23.00;67.60;;;;;;5053264;28;20031;-77
2021/07/11 10:16:13;;;;;;;4.15;2.72;;;22.60;71.60;;;;;;5052930;28;20085;-77
2021/07/11 10:18:40;;;;;;;4.53;2.65;;;22.10;73.30;;;;;;5051887;28;20029;-78
2021/07/11 10:21:07;;;;;;;3.15;2.70;;;21.90;73.50;;;;;;5068220;28;20060;-77
2021/07/11 10:23:34;;;;;;;4.47;2.72;;;22.00;72.90;;;;;;5073290;28;20418;-76
2021/07/11 10:26:02;;;;;;;4.50;2.83;;;21.80;71.40;;;;;;5056725;28;20049;-79
2021/07/11 10:28:30;;;;;;;3.28;2.47;;;21.80;72.70;;;;;;5052802;28;20408;-77
2021/07/11 10:30:57;;;;;;;3.90;2.92;;;22.00;72.00;;;;;;5053316;28;20036;-78
2021/07/11 10:33:24;;;;;;;5.30;2.97;;;22.10;72.40;;;;;;5053126;28;20029;-77
2021/07/11 10:35:57;;;;;;;4.20;2.67;;;22.10;72.80;;;;;;5053062;28;20024;-77
2021/07/11 10:38:43;;;;;;;4.53;2.92;;;22.10;71.70;;;;;;5052821;28;20029;-80
2021/07/11 10:41:11;;;;;;;6.22;3.92;;;22.20;72.20;;;;;;5053065;28;20469;-76
2021/07/11 10:43:37;;;;;;;4.75;2.83;;;22.10;73.00;;;;;;5052931;28;20029;-76
2021/07/11 10:46:02;;;;;;;3.50;3.05;;;22.00;75.30;;;;;;5052901;28;20040;-78
2021/07/11 10:48:30;;;;;;;4.15;2.95;;;22.00;73.70;;;;;;5052655;28;20029;-78
2021/07/11 10:50:55;;;;;;;4.80;3.30;;;22.20;73.30;;;;;;5052619;28;20025;-79
2021/07/11 10:53:21;;;;;;;6.28;2.80;;;22.40;72.80;;;;;;5052896;28;20108;-77
2021/07/11 10:55:47;;;;;;;4.40;2.72;;;22.50;72.00;;;;;;5052884;28;20009;-75
2021/07/11 10:58:16;;;;;;;3.90;2.80;;;22.40;71.10;;;;;;5053474;28;20380;-76
2021/07/11 11:00:43;;;;;;;3.20;2.90;;;22.10;73.40;;;;;;5056837;28;20025;-76
2021/07/11 11:03:20;;;;;;;4.90;2.80;;;22.10;73.30;;;;;;5056691;28;20442;-78
2021/07/11 11:05:51;;;;;;;3.28;2.85;;;22.40;72.50;;;;;;5056677;28;20439;-79
2021/07/11 11:08:19;;;;;;;4.72;3.30;;;22.30;71.70;;;;;;5056713;28;20473;-78
2021/07/11 11:10:46;;;;;;;3.58;2.80;;;22.10;72.00;;;;;;5056530;28;20503;-76
2021/07/11 11:13:12;;;;;;;4.80;2.97;;;21.80;75.80;;;;;;5056542;28;20032;-79
2021/07/11 11:15:44;;;;;;;4.40;3.00;;;22.00;74.90;;;;;;5056375;28;20023;-79
2021/07/11 11:18:19;;;;;;;5.43;3.28;;;22.40;72.30;;;;;;5056517;28;20147;-76
2021/07/11 11:20:50;;;;;;;5.95;3.30;;;22.50;72.00;;;;;;5043977;28;20425;-79
2021/07/11 11:23:16;;;;;;;5.60;3.70;;;22.60;71.40;;;;;;5036393;28;20489;-77
2021/07/11 11:25:46;;;;;;;4.68;3.50;;;22.90;71.30;;;;;;5036155;28;20087;-79
2021/07/11 11:28:12;;;;;;;4.63;3.30;;;23.00;68.60;;;;;;5035982;28;20095;-78
2021/07/11 11:30:38;;;;;;;3.30;2.78;;;22.80;70.20;;;;;;5036232;28;20152;-80
2021/07/11 11:33:04;;;;;;;6.05;3.88;;;22.70;71.60;;;;;;5036283;28;20104;-76
2021/07/11 11:35:32;;;;;;;6.93;3.55;;;22.30;72.80;;;;;;5036183;28;20017;-79
2021/07/11 11:38:04;;;;;;;5.97;3.63;;;22.00;75.40;;;;;;5036240;28;20028;-76
2021/07/11 11:40:31;;;;;;;5.90;3.72;;;22.20;74.90;;;;;;5035740;28;20022;-76
2021/07/11 11:43:05;;;;;;;4.13;3.22;;;22.50;73.70;;;;;;5036036;28;20025;-77
2021/07/11 11:45:33;;;;;;;5.93;3.85;;;22.90;71.40;;;;;;5035706;28;20045;-79
2021/07/11 11:48:09;;;;;;;5.90;3.53;;;22.90;70.00;;;;;;5035925;28;20083;-80
2021/07/11 11:50:36;;;;;;;6.05;3.50;;;22.80;71.90;;;;;;5035714;28;20105;-80
2021/07/11 11:53:07;;;;;;;5.20;3.50;;;23.10;70.30;;;;;;5035862;28;20454;-79
2021/07/11 11:55:54;;;;;;;5.28;3.45;;;23.40;68.10;;;;;;5035825;28;20028;-79
2021/07/11 11:58:31;;;;;;;5.38;3.40;;;23.30;68.10;;;;;;5035293;28;20037;-77
2021/07/11 12:01:05;;;;;;;4.57;3.45;;;23.20;69.20;;;;;;5036000;28;20074;-79
2021/07/11 12:03:31;;;;;;;4.35;3.22;;;23.10;70.30;;;;;;5035440;28;20026;-77
2021/07/11 12:06:00;;;;;;;7.05;3.75;;;22.70;71.20;;;;;;5035830;28;20359;-76
2021/07/11 12:08:28;;;;;;;6.53;3.83;;;22.70;72.80;;;;;;5035588;28;20025;-81
2021/07/11 12:10:54;;;;;;;5.63;3.60;;;22.60;72.10;;;;;;5034917;28;20116;-80
2021/07/11 12:13:25;;;;;;;4.60;4.10;;;22.60;73.20;;;;;;5017747;28;20113;-78
2021/07/11 12:16:02;;;;;;;6.43;3.88;;;22.20;74.10;;;;;;5035230;28;20470;-78
2021/07/11 12:18:27;;;;;;;6.10;3.88;;;22.00;74.20;;;;;;5035511;28;20030;-77
2021/07/11 12:20:54;;;;;;;4.53;3.58;;;22.10;74.90;;;;;;5048587;28;20112;-80
2021/07/11 12:23:20;;;;;;;5.95;3.88;;;22.30;75.40;;;;;;5055222;28;20035;-80
2021/07/11 12:26:07;;;;;;;5.53;3.65;;;22.50;73.70;;;;;;5054877;28;20120;-76
2021/07/11 12:28:35;;;;;;;6.07;4.30;;;22.50;76.30;;;;;;5036952;28;20029;-76
2021/07/11 12:31:01;;;;;;;5.40;3.70;;;22.70;73.40;;;;;;5055081;28;20032;-78
2021/07/11 12:33:27;;;;;;;6.22;4.00;;;22.50;72.90;;;;;;5055061;28;20025;-77
2021/07/11 12:35:58;;;;;;;6.15;3.58;;;22.20;75.40;;;;;;5054986;28;20104;-78
2021/07/11 12:38:34;;;;;;;6.82;3.58;;;22.10;75.60;;;;;;5054958;28;20024;-79
2021/07/11 12:41:02;;;;;;;5.25;3.70;;;22.00;76.20;;;;;;5055157;28;20150;-79
2021/07/11 12:43:30;;;;;;;4.95;3.53;;;21.90;76.50;;;;;;5054964;28;20036;-80
2021/07/11 12:46:07;;;;;;;5.88;3.72;;;21.90;77.30;;;;;;5036929;28;20028;-77
2021/07/11 12:48:45;;;;;;;5.45;3.65;;;22.10;75.50;;;;;;5054852;28;20024;-78